Terminal Aerodrome Forecast
Issued by NWS

Home | Current Version | Previous Version | Text Only | Print | Product List | Glossary On
Versions: 1 2 3 4 5 6 7 8 9 10 11 12 13 14 15
000
FTUS44 KBMX 301720
TAFTOI
TAF
KTOI 301720Z 3018/3118 VRB05KT P6SM VCTS SCT040CB
      TEMPO 3022/3024 VRB10G20KT 3SM TSRA BKN040CB BKN100
     FM310000 36005KT P6SM VCTS SCT050CB SCT150
     FM310300 35005KT P6SM SCT200=

USA.gov is the U.S. government's official web portal to all federal, state and local government web resources and services.